sensor_id;sensor_type;location;lat;lon;timestamp;P1;durP1;ratioP1;P2;durP2;ratioP2
15198;SDS011;7700;48.654;9.070;2023-07-13T00:00:54;1.85;;;1.05;;
15198;SDS011;7700;48.654;9.070;2023-07-13T00:03:21;3.40;;;1.67;;
15198;SDS011;7700;48.654;9.070;2023-07-13T00:05:47;3.85;;;1.27;;
15198;SDS011;7700;48.654;9.070;2023-07-13T00:08:13;2.40;;;1.40;;
15198;SDS011;7700;48.654;9.070;2023-07-13T00:10:40;1.92;;;1.00;;
15198;SDS011;7700;48.654;9.070;2023-07-13T00:13:06;1.48;;;1.08;;
15198;SDS011;7700;48.654;9.070;2023-07-13T00:15:33;4.38;;;1.38;;
15198;SDS011;7700;48.654;9.070;2023-07-13T00:18:00;2.83;;;1.35;;
15198;SDS011;7700;48.654;9.070;2023-07-13T00:20:26;1.63;;;0.90;;
15198;SDS011;7700;48.654;9.070;2023-07-13T00:22:52;1.98;;;1.13;;
15198;SDS011;7700;48.654;9.070;2023-07-13T00:25:19;2.25;;;1.10;;
15198;SDS011;7700;48.654;9.070;2023-07-13T00:27:46;2.42;;;1.10;;
15198;SDS011;7700;48.654;9.070;2023-07-13T00:30:13;2.15;;;1.20;;
15198;SDS011;7700;48.654;9.070;2023-07-13T00:32:39;3.25;;;1.15;;
15198;SDS011;7700;48.654;9.070;2023-07-13T00:35:06;2.58;;;1.60;;
15198;SDS011;7700;48.654;9.070;2023-07-13T00:37:32;2.35;;;1.10;;
15198;SDS011;7700;48.654;9.070;2023-07-13T00:40:00;3.42;;;1.15;;
15198;SDS011;7700;48.654;9.070;2023-07-13T00:42:26;1.23;;;1.13;;
15198;SDS011;7700;48.654;9.070;2023-07-13T00:45:06;2.05;;;1.08;;
15198;SDS011;7700;48.654;9.070;2023-07-13T00:47:32;2.95;;;1.10;;
15198;SDS011;7700;48.654;9.070;2023-07-13T00:49:59;2.33;;;1.40;;
15198;SDS011;7700;48.654;9.070;2023-07-13T00:52:25;2.00;;;1.10;;
15198;SDS011;7700;48.654;9.070;2023-07-13T00:54:51;4.78;;;1.10;;
15198;SDS011;7700;48.654;9.070;2023-07-13T00:57:18;2.88;;;1.30;;
15198;SDS011;7700;48.654;9.070;2023-07-13T00:59:45;1.23;;;0.95;;
15198;SDS011;7700;48.654;9.070;2023-07-13T01:02:13;3.58;;;1.00;;
15198;SDS011;7700;48.654;9.070;2023-07-13T01:04:39;1.45;;;1.13;;
15198;SDS011;7700;48.654;9.070;2023-07-13T01:07:09;2.15;;;1.00;;
15198;SDS011;7700;48.654;9.070;2023-07-13T01:09:36;3.28;;;1.10;;
15198;SDS011;7700;48.654;9.070;2023-07-13T01:12:02;1.55;;;1.30;;
15198;SDS011;7700;48.654;9.070;2023-07-13T01:14:28;1.75;;;1.13;;
15198;SDS011;7700;48.654;9.070;2023-07-13T01:16:54;4.07;;;1.08;;
15198;SDS011;7700;48.654;9.070;2023-07-13T01:19:40;4.53;;;1.50;;
15198;SDS011;7700;48.654;9.070;2023-07-13T01:22:08;4.18;;;1.33;;
15198;SDS011;7700;48.654;9.070;2023-07-13T01:24:36;1.98;;;1.42;;
15198;SDS011;7700;48.654;9.070;2023-07-13T01:27:02;2.13;;;1.60;;
15198;SDS011;7700;48.654;9.070;2023-07-13T01:29:30;2.17;;;1.10;;
15198;SDS011;7700;48.654;9.070;2023-07-13T01:31:57;1.63;;;1.33;;
15198;SDS011;7700;48.654;9.070;2023-07-13T01:34:23;2.08;;;1.10;;
15198;SDS011;7700;48.654;9.070;2023-07-13T01:36:49;2.90;;;1.17;;
15198;SDS011;7700;48.654;9.070;2023-07-13T01:39:19;2.72;;;1.27;;
15198;SDS011;7700;48.654;9.070;2023-07-13T01:41:45;4.45;;;1.27;;
15198;SDS011;7700;48.654;9.070;2023-07-13T01:44:11;4.10;;;1.30;;
15198;SDS011;7700;48.654;9.070;2023-07-13T01:46:37;2.03;;;1.25;;
15198;SDS011;7700;48.654;9.070;2023-07-13T01:49:03;1.25;;;1.08;;
15198;SDS011;7700;48.654;9.070;2023-07-13T01:51:29;1.40;;;1.02;;
15198;SDS011;7700;48.654;9.070;2023-07-13T01:53:54;2.17;;;0.90;;
15198;SDS011;7700;48.654;9.070;2023-07-13T01:56:20;1.90;;;1.52;;
15198;SDS011;7700;48.654;9.070;2023-07-13T01:58:46;1.92;;;1.40;;
15198;SDS011;7700;48.654;9.070;2023-07-13T02:01:12;2.33;;;1.15;;
15198;SDS011;7700;48.654;9.070;2023-07-13T02:03:38;2.08;;;1.40;;
15198;SDS011;7700;48.654;9.070;2023-07-13T02:06:04;3.38;;;1.33;;
15198;SDS011;7700;48.654;9.070;2023-07-13T02:08:32;1.48;;;1.00;;
15198;SDS011;7700;48.654;9.070;2023-07-13T02:13:33;2.50;;;1.20;;
15198;SDS011;7700;48.654;9.070;2023-07-13T02:15:59;4.00;;;1.80;;
15198;SDS011;7700;48.654;9.070;2023-07-13T02:18:25;1.52;;;1.42;;
15198;SDS011;7700;48.654;9.070;2023-07-13T02:20:51;2.58;;;1.38;;
15198;SDS011;7700;48.654;9.070;2023-07-13T02:23:17;3.17;;;1.30;;
15198;SDS011;7700;48.654;9.070;2023-07-13T02:25:43;1.33;;;1.00;;
15198;SDS011;7700;48.654;9.070;2023-07-13T02:28:09;2.60;;;1.58;;
15198;SDS011;7700;48.654;9.070;2023-07-13T02:30:35;2.22;;;1.25;;
15198;SDS011;7700;48.654;9.070;2023-07-13T02:33:01;2.05;;;1.27;;
15198;SDS011;7700;48.654;9.070;2023-07-13T02:35:27;2.50;;;0.98;;
15198;SDS011;7700;48.654;9.070;2023-07-13T02:37:53;2.28;;;1.30;;
15198;SDS011;7700;48.654;9.070;2023-07-13T02:40:19;2.88;;;1.40;;
15198;SDS011;7700;48.654;9.070;2023-07-13T02:42:45;3.63;;;1.38;;
15198;SDS011;7700;48.654;9.070;2023-07-13T02:45:11;5.05;;;1.65;;
15198;SDS011;7700;48.654;9.070;2023-07-13T02:47:39;1.20;;;1.10;;
15198;SDS011;7700;48.654;9.070;2023-07-13T02:50:05;2.60;;;1.42;;
15198;SDS011;7700;48.654;9.070;2023-07-13T02:52:31;1.80;;;1.27;;
15198;SDS011;7700;48.654;9.070;2023-07-13T02:54:57;2.55;;;1.48;;
15198;SDS011;7700;48.654;9.070;2023-07-13T02:57:23;2.33;;;1.42;;
15198;SDS011;7700;48.654;9.070;2023-07-13T02:59:49;3.13;;;1.30;;
15198;SDS011;7700;48.654;9.070;2023-07-13T03:02:15;1.75;;;1.65;;
15198;SDS011;7700;48.654;9.070;2023-07-13T03:04:41;2.05;;;1.35;;
15198;SDS011;7700;48.654;9.070;2023-07-13T03:07:07;2.00;;;1.42;;
15198;SDS011;7700;48.654;9.070;2023-07-13T03:09:34;2.30;;;1.30;;
15198;SDS011;7700;48.654;9.070;2023-07-13T03:12:00;1.40;;;1.13;;
15198;SDS011;7700;48.654;9.070;2023-07-13T03:14:26;2.30;;;1.35;;
15198;SDS011;7700;48.654;9.070;2023-07-13T03:16:52;3.13;;;1.58;;
15198;SDS011;7700;48.654;9.070;2023-07-13T03:19:18;2.85;;;1.55;;
15198;SDS011;7700;48.654;9.070;2023-07-13T03:21:45;2.22;;;1.63;;
15198;SDS011;7700;48.654;9.070;2023-07-13T03:24:11;2.85;;;1.10;;
15198;SDS011;7700;48.654;9.070;2023-07-13T03:26:37;2.70;;;1.50;;
15198;SDS011;7700;48.654;9.070;2023-07-13T03:29:03;2.15;;;1.38;;
15198;SDS011;7700;48.654;9.070;2023-07-13T03:31:31;5.05;;;1.63;;
15198;SDS011;7700;48.654;9.070;2023-07-13T03:33:57;2.55;;;1.25;;
15198;SDS011;7700;48.654;9.070;2023-07-13T03:36:24;1.55;;;1.45;;
15198;SDS011;7700;48.654;9.070;2023-07-13T03:38:54;1.77;;;1.35;;
15198;SDS011;7700;48.654;9.070;2023-07-13T03:41:21;2.08;;;1.50;;
15198;SDS011;7700;48.654;9.070;2023-07-13T03:43:47;2.47;;;1.45;;
15198;SDS011;7700;48.654;9.070;2023-07-13T03:46:13;1.95;;;1.60;;
15198;SDS011;7700;48.654;9.070;2023-07-13T03:48:40;4.90;;;2.00;;
15198;SDS011;7700;48.654;9.070;2023-07-13T03:51:08;2.95;;;1.17;;
15198;SDS011;7700;48.654;9.070;2023-07-13T03:53:38;3.42;;;1.50;;
15198;SDS011;7700;48.654;9.070;2023-07-13T03:56:04;2.55;;;1.40;;
15198;SDS011;7700;48.654;9.070;2023-07-13T03:58:31;1.92;;;1.50;;
15198;SDS011;7700;48.654;9.070;2023-07-13T04:00:58;3.08;;;1.73;;
15198;SDS011;7700;48.654;9.070;2023-07-13T04:03:25;2.08;;;1.58;;
15198;SDS011;7700;48.654;9.070;2023-07-13T04:05:52;5.43;;;1.55;;
15198;SDS011;7700;48.654;9.070;2023-07-13T04:08:18;1.60;;;1.25;;
15198;SDS011;7700;48.654;9.070;2023-07-13T04:10:44;4.28;;;1.42;;
15198;SDS011;7700;48.654;9.070;2023-07-13T04:13:10;3.53;;;1.50;;
15198;SDS011;7700;48.654;9.070;2023-07-13T04:15:37;1.75;;;1.38;;
15198;SDS011;7700;48.654;9.070;2023-07-13T04:18:04;3.67;;;1.85;;
15198;SDS011;7700;48.654;9.070;2023-07-13T04:20:31;1.35;;;1.15;;
15198;SDS011;7700;48.654;9.070;2023-07-13T04:22:57;1.40;;;1.30;;
15198;SDS011;7700;48.654;9.070;2023-07-13T04:25:23;1.92;;;1.48;;
15198;SDS011;7700;48.654;9.070;2023-07-13T04:27:50;1.77;;;1.40;;
15198;SDS011;7700;48.654;9.070;2023-07-13T04:30:17;1.77;;;1.63;;
15198;SDS011;7700;48.654;9.070;2023-07-13T04:32:43;2.08;;;1.50;;
15198;SDS011;7700;48.654;9.070;2023-07-13T04:35:08;2.65;;;1.38;;
15198;SDS011;7700;48.654;9.070;2023-07-13T04:37:34;1.50;;;1.40;;
15198;SDS011;7700;48.654;9.070;2023-07-13T04:40:01;3.25;;;1.40;;
15198;SDS011;7700;48.654;9.070;2023-07-13T04:42:28;1.85;;;1.60;;
15198;SDS011;7700;48.654;9.070;2023-07-13T04:44:54;2.10;;;1.48;;
15198;SDS011;7700;48.654;9.070;2023-07-13T04:47:21;1.92;;;1.48;;
15198;SDS011;7700;48.654;9.070;2023-07-13T04:49:47;1.60;;;1.50;;
15198;SDS011;7700;48.654;9.070;2023-07-13T04:52:12;3.13;;;1.90;;
15198;SDS011;7700;48.654;9.070;2023-07-13T04:54:38;1.58;;;1.42;;
15198;SDS011;7700;48.654;9.070;2023-07-13T04:57:05;2.38;;;1.60;;
15198;SDS011;7700;48.654;9.070;2023-07-13T04:59:31;1.73;;;1.63;;
15198;SDS011;7700;48.654;9.070;2023-07-13T05:01:57;2.45;;;1.60;;
15198;SDS011;7700;48.654;9.070;2023-07-13T05:04:23;2.85;;;1.77;;
15198;SDS011;7700;48.654;9.070;2023-07-13T05:06:49;3.55;;;1.70;;
15198;SDS011;7700;48.654;9.070;2023-07-13T05:09:15;2.50;;;1.60;;
15198;SDS011;7700;48.654;9.070;2023-07-13T05:11:41;1.90;;;1.40;;
15198;SDS011;7700;48.654;9.070;2023-07-13T05:14:07;1.67;;;1.48;;
15198;SDS011;7700;48.654;9.070;2023-07-13T05:16:34;1.88;;;1.27;;
15198;SDS011;7700;48.654;9.070;2023-07-13T05:19:00;3.25;;;1.80;;
15198;SDS011;7700;48.654;9.070;2023-07-13T05:21:26;3.70;;;1.30;;
15198;SDS011;7700;48.654;9.070;2023-07-13T05:23:52;3.20;;;1.50;;
15198;SDS011;7700;48.654;9.070;2023-07-13T05:26:18;3.05;;;1.52;;
15198;SDS011;7700;48.654;9.070;2023-07-13T05:28:45;5.70;;;1.70;;
15198;SDS011;7700;48.654;9.070;2023-07-13T05:31:11;3.10;;;1.45;;
15198;SDS011;7700;48.654;9.070;2023-07-13T05:33:37;2.80;;;1.50;;
15198;SDS011;7700;48.654;9.070;2023-07-13T05:36:03;2.97;;;1.50;;
15198;SDS011;7700;48.654;9.070;2023-07-13T05:38:29;3.90;;;1.73;;
15198;SDS011;7700;48.654;9.070;2023-07-13T05:40:55;1.85;;;1.65;;
15198;SDS011;7700;48.654;9.070;2023-07-13T05:43:22;1.63;;;1.50;;
15198;SDS011;7700;48.654;9.070;2023-07-13T05:45:48;2.67;;;1.88;;
15198;SDS011;7700;48.654;9.070;2023-07-13T05:48:14;3.08;;;1.60;;
15198;SDS011;7700;48.654;9.070;2023-07-13T05:50:40;2.42;;;1.92;;
15198;SDS011;7700;48.654;9.070;2023-07-13T05:53:06;2.67;;;1.67;;
15198;SDS011;7700;48.654;9.070;2023-07-13T05:55:33;2.85;;;1.80;;
15198;SDS011;7700;48.654;9.070;2023-07-13T05:57:59;4.15;;;1.95;;
15198;SDS011;7700;48.654;9.070;2023-07-13T06:00:25;2.90;;;1.80;;
15198;SDS011;7700;48.654;9.070;2023-07-13T06:02:51;4.18;;;2.03;;
15198;SDS011;7700;48.654;9.070;2023-07-13T06:05:18;2.97;;;1.70;;
15198;SDS011;7700;48.654;9.070;2023-07-13T06:07:43;2.63;;;1.90;;
15198;SDS011;7700;48.654;9.070;2023-07-13T06:10:09;6.50;;;1.70;;
15198;SDS011;7700;48.654;9.070;2023-07-13T06:12:35;2.78;;;1.80;;
15198;SDS011;7700;48.654;9.070;2023-07-13T06:15:01;3.67;;;1.92;;
15198;SDS011;7700;48.654;9.070;2023-07-13T06:17:28;6.63;;;1.83;;
15198;SDS011;7700;48.654;9.070;2023-07-13T06:19:54;2.67;;;1.60;;
15198;SDS011;7700;48.654;9.070;2023-07-13T06:22:19;3.35;;;1.67;;
15198;SDS011;7700;48.654;9.070;2023-07-13T06:24:45;3.95;;;1.52;;
15198;SDS011;7700;48.654;9.070;2023-07-13T06:27:11;2.90;;;1.73;;
15198;SDS011;7700;48.654;9.070;2023-07-13T06:29:37;3.58;;;1.63;;
15198;SDS011;7700;48.654;9.070;2023-07-13T06:32:04;4.15;;;1.75;;
15198;SDS011;7700;48.654;9.070;2023-07-13T06:34:30;1.67;;;1.42;;
15198;SDS011;7700;48.654;9.070;2023-07-13T06:36:56;2.45;;;1.70;;
15198;SDS011;7700;48.654;9.070;2023-07-13T06:39:22;2.60;;;1.80;;
15198;SDS011;7700;48.654;9.070;2023-07-13T06:41:48;3.63;;;1.83;;
15198;SDS011;7700;48.654;9.070;2023-07-13T06:44:14;5.65;;;2.00;;
15198;SDS011;7700;48.654;9.070;2023-07-13T06:46:40;2.53;;;1.42;;
15198;SDS011;7700;48.654;9.070;2023-07-13T06:49:07;6.25;;;1.70;;
15198;SDS011;7700;48.654;9.070;2023-07-13T06:51:34;2.50;;;1.60;;
15198;SDS011;7700;48.654;9.070;2023-07-13T06:53:59;2.40;;;1.50;;
15198;SDS011;7700;48.654;9.070;2023-07-13T06:56:25;2.30;;;1.50;;
15198;SDS011;7700;48.654;9.070;2023-07-13T06:58:51;5.65;;;1.40;;
15198;SDS011;7700;48.654;9.070;2023-07-13T07:01:17;4.90;;;1.40;;
15198;SDS011;7700;48.654;9.070;2023-07-13T07:03:43;3.15;;;1.48;;
15198;SDS011;7700;48.654;9.070;2023-07-13T07:06:12;5.00;;;1.60;;
15198;SDS011;7700;48.654;9.070;2023-07-13T07:08:39;3.33;;;1.58;;
15198;SDS011;7700;48.654;9.070;2023-07-13T07:11:07;2.97;;;1.45;;
15198;SDS011;7700;48.654;9.070;2023-07-13T07:13:33;4.43;;;1.38;;
15198;SDS011;7700;48.654;9.070;2023-07-13T07:15:59;2.40;;;1.10;;
15198;SDS011;7700;48.654;9.070;2023-07-13T07:18:25;3.40;;;1.42;;
15198;SDS011;7700;48.654;9.070;2023-07-13T07:20:51;2.58;;;1.23;;
15198;SDS011;7700;48.654;9.070;2023-07-13T07:23:17;2.45;;;1.13;;
15198;SDS011;7700;48.654;9.070;2023-07-13T07:25:44;2.30;;;1.35;;
15198;SDS011;7700;48.654;9.070;2023-07-13T07:28:11;2.58;;;1.20;;
15198;SDS011;7700;48.654;9.070;2023-07-13T07:30:37;1.73;;;1.30;;
15198;SDS011;7700;48.654;9.070;2023-07-13T07:33:07;3.17;;;1.20;;
15198;SDS011;7700;48.654;9.070;2023-07-13T07:35:33;2.53;;;1.13;;
15198;SDS011;7700;48.654;9.070;2023-07-13T07:37:59;2.88;;;1.38;;
15198;SDS011;7700;48.654;9.070;2023-07-13T07:40:25;4.10;;;1.00;;
15198;SDS011;7700;48.654;9.070;2023-07-13T07:42:51;3.58;;;1.10;;
15198;SDS011;7700;48.654;9.070;2023-07-13T07:45:17;2.65;;;1.02;;
15198;SDS011;7700;48.654;9.070;2023-07-13T07:47:43;2.47;;;1.10;;
15198;SDS011;7700;48.654;9.070;2023-07-13T07:50:09;2.70;;;1.25;;
15198;SDS011;7700;48.654;9.070;2023-07-13T07:52:35;2.55;;;1.25;;
15198;SDS011;7700;48.654;9.070;2023-07-13T07:55:01;4.05;;;1.40;;
15198;SDS011;7700;48.654;9.070;2023-07-13T07:57:27;2.80;;;1.40;;
15198;SDS011;7700;48.654;9.070;2023-07-13T07:59:53;2.03;;;1.25;;
15198;SDS011;7700;48.654;9.070;2023-07-13T08:02:19;2.33;;;1.40;;
15198;SDS011;7700;48.654;9.070;2023-07-13T08:04:45;3.50;;;2.38;;
15198;SDS011;7700;48.654;9.070;2023-07-13T08:07:11;4.65;;;2.38;;
15198;SDS011;7700;48.654;9.070;2023-07-13T08:09:36;4.43;;;2.50;;
15198;SDS011;7700;48.654;9.070;2023-07-13T08:12:02;3.97;;;2.05;;
15198;SDS011;7700;48.654;9.070;2023-07-13T08:14:28;5.72;;;3.13;;
15198;SDS011;7700;48.654;9.070;2023-07-13T08:16:54;2.40;;;2.15;;
15198;SDS011;7700;48.654;9.070;2023-07-13T08:19:20;4.10;;;3.70;;
15198;SDS011;7700;48.654;9.070;2023-07-13T08:21:46;4.60;;;4.30;;
15198;SDS011;7700;48.654;9.070;2023-07-13T08:24:13;4.65;;;4.30;;
15198;SDS011;7700;48.654;9.070;2023-07-13T08:26:39;8.05;;;7.50;;
15198;SDS011;7700;48.654;9.070;2023-07-13T08:29:05;4.32;;;4.03;;
15198;SDS011;7700;48.654;9.070;2023-07-13T08:31:31;3.78;;;3.22;;
15198;SDS011;7700;48.654;9.070;2023-07-13T08:33:57;12.65;;;11.80;;
15198;SDS011;7700;48.654;9.070;2023-07-13T08:36:24;4.97;;;4.57;;
15198;SDS011;7700;48.654;9.070;2023-07-13T08:38:51;23.95;;;22.75;;
15198;SDS011;7700;48.654;9.070;2023-07-13T08:41:18;20.65;;;13.85;;
15198;SDS011;7700;48.654;9.070;2023-07-13T08:43:48;22.77;;;21.02;;
15198;SDS011;7700;48.654;9.070;2023-07-13T08:46:24;40.97;;;38.28;;
15198;SDS011;7700;48.654;9.070;2023-07-13T08:51:40;100.60;;;93.93;;
15198;SDS011;7700;48.654;9.070;2023-07-13T08:54:20;68.38;;;62.95;;
15198;SDS011;7700;48.654;9.070;2023-07-13T08:56:48;59.40;;;54.50;;
15198;SDS011;7700;48.654;9.070;2023-07-13T08:59:18;73.93;;;68.32;;
15198;SDS011;7700;48.654;9.070;2023-07-13T09:04:25;72.00;;;67.05;;
15198;SDS011;7700;48.654;9.070;2023-07-13T09:11:49;86.43;;;80.68;;
15198;SDS011;7700;48.654;9.070;2023-07-13T09:16:52;68.13;;;63.08;;
15198;SDS011;7700;48.654;9.070;2023-07-13T09:19:25;156.40;;;144.60;;
15198;SDS011;7700;48.654;9.070;2023-07-13T09:21:52;73.20;;;66.55;;
15198;SDS011;7700;48.654;9.070;2023-07-13T09:24:36;114.28;;;106.10;;
15198;SDS011;7700;48.654;9.070;2023-07-13T09:27:03;64.35;;;59.78;;
15198;SDS011;7700;48.654;9.070;2023-07-13T09:29:34;76.80;;;70.63;;
15198;SDS011;7700;48.654;9.070;2023-07-13T09:32:04;66.75;;;60.70;;
15198;SDS011;7700;48.654;9.070;2023-07-13T09:34:32;100.57;;;91.47;;
15198;SDS011;7700;48.654;9.070;2023-07-13T09:36:58;113.35;;;102.63;;
15198;SDS011;7700;48.654;9.070;2023-07-13T09:39:35;62.78;;;58.00;;
15198;SDS011;7700;48.654;9.070;2023-07-13T09:42:15;83.47;;;76.75;;
15198;SDS011;7700;48.654;9.070;2023-07-13T09:47:24;79.80;;;72.28;;
15198;SDS011;7700;48.654;9.070;2023-07-13T09:49:55;76.45;;;70.78;;
15198;SDS011;7700;48.654;9.070;2023-07-13T09:52:23;96.53;;;88.88;;
15198;SDS011;7700;48.654;9.070;2023-07-13T09:54:49;104.00;;;95.68;;
15198;SDS011;7700;48.654;9.070;2023-07-13T09:57:16;88.43;;;80.53;;
15198;SDS011;7700;48.654;9.070;2023-07-13T09:59:44;72.80;;;66.68;;
15198;SDS011;7700;48.654;9.070;2023-07-13T10:03:33;86.40;;;79.97;;
15198;SDS011;7700;48.654;9.070;2023-07-13T10:06:15;61.17;;;56.80;;
15198;SDS011;7700;48.654;9.070;2023-07-13T10:08:41;235.07;;;216.52;;
15198;SDS011;7700;48.654;9.070;2023-07-13T10:11:09;69.40;;;64.53;;
15198;SDS011;7700;48.654;9.070;2023-07-13T10:13:35;91.25;;;83.20;;
15198;SDS011;7700;48.654;9.070;2023-07-13T10:16:02;96.97;;;89.00;;
15198;SDS011;7700;48.654;9.070;2023-07-13T10:18:31;53.10;;;48.90;;
15198;SDS011;7700;48.654;9.070;2023-07-13T10:23:57;96.40;;;89.45;;
15198;SDS011;7700;48.654;9.070;2023-07-13T10:26:27;73.43;;;68.30;;
15198;SDS011;7700;48.654;9.070;2023-07-13T10:28:56;62.95;;;57.97;;
15198;SDS011;7700;48.654;9.070;2023-07-13T10:31:23;70.88;;;63.45;;
15198;SDS011;7700;48.654;9.070;2023-07-13T10:33:49;69.18;;;62.20;;
15198;SDS011;7700;48.654;9.070;2023-07-13T10:38:44;59.67;;;52.58;;
15198;SDS011;7700;48.654;9.070;2023-07-13T10:41:13;78.35;;;71.00;;
15198;SDS011;7700;48.654;9.070;2023-07-13T10:43:44;73.85;;;67.03;;
15198;SDS011;7700;48.654;9.070;2023-07-13T10:46:13;90.40;;;81.43;;
15198;SDS011;7700;48.654;9.070;2023-07-13T10:48:40;63.42;;;57.55;;
15198;SDS011;7700;48.654;9.070;2023-07-13T10:51:08;65.78;;;59.40;;
15198;SDS011;7700;48.654;9.070;2023-07-13T10:53:36;103.20;;;93.05;;
15198;SDS011;7700;48.654;9.070;2023-07-13T10:56:13;64.43;;;57.63;;
15198;SDS011;7700;48.654;9.070;2023-07-13T10:58:44;62.58;;;56.25;;
15198;SDS011;7700;48.654;9.070;2023-07-13T11:01:15;87.95;;;78.63;;
15198;SDS011;7700;48.654;9.070;2023-07-13T11:09:19;169.07;;;135.32;;
15198;SDS011;7700;48.654;9.070;2023-07-13T11:11:45;70.90;;;63.35;;
15198;SDS011;7700;48.654;9.070;2023-07-13T11:14:28;60.17;;;54.28;;
15198;SDS011;7700;48.654;9.070;2023-07-13T11:16:55;77.55;;;69.30;;
15198;SDS011;7700;48.654;9.070;2023-07-13T11:22:09;77.50;;;66.50;;
15198;SDS011;7700;48.654;9.070;2023-07-13T11:25:20;91.07;;;70.40;;
15198;SDS011;7700;48.654;9.070;2023-07-13T11:32:49;77.35;;;60.40;;
15198;SDS011;7700;48.654;9.070;2023-07-13T11:35:21;66.03;;;57.42;;
15198;SDS011;7700;48.654;9.070;2023-07-13T11:37:49;69.95;;;57.13;;
15198;SDS011;7700;48.654;9.070;2023-07-13T11:40:15;89.20;;;79.90;;
15198;SDS011;7700;48.654;9.070;2023-07-13T11:42:41;79.90;;;57.03;;
15198;SDS011;7700;48.654;9.070;2023-07-13T11:45:20;68.85;;;54.80;;
15198;SDS011;7700;48.654;9.070;2023-07-13T11:47:50;78.95;;;67.57;;
15198;SDS011;7700;48.654;9.070;2023-07-13T11:50:20;99.80;;;89.97;;
15198;SDS011;7700;48.654;9.070;2023-07-13T11:52:46;65.78;;;58.72;;
15198;SDS011;7700;48.654;9.070;2023-07-13T11:55:16;71.80;;;56.85;;
15198;SDS011;7700;48.654;9.070;2023-07-13T11:57:45;76.18;;;61.38;;
15198;SDS011;7700;48.654;9.070;2023-07-13T12:00:13;83.22;;;74.15;;
15198;SDS011;7700;48.654;9.070;2023-07-13T12:02:44;66.68;;;60.22;;
15198;SDS011;7700;48.654;9.070;2023-07-13T12:05:13;74.68;;;67.65;;
15198;SDS011;7700;48.654;9.070;2023-07-13T12:07:40;56.15;;;50.67;;
15198;SDS011;7700;48.654;9.070;2023-07-13T12:10:20;64.47;;;57.95;;
15198;SDS011;7700;48.654;9.070;2023-07-13T12:12:48;83.03;;;70.20;;
15198;SDS011;7700;48.654;9.070;2023-07-13T12:15:14;88.35;;;75.57;;
15198;SDS011;7700;48.654;9.070;2023-07-13T12:17:40;84.95;;;68.13;;
15198;SDS011;7700;48.654;9.070;2023-07-13T12:20:16;78.22;;;69.15;;
15198;SDS011;7700;48.654;9.070;2023-07-13T12:22:47;75.53;;;64.90;;
15198;SDS011;7700;48.654;9.070;2023-07-13T12:25:13;75.07;;;67.40;;
15198;SDS011;7700;48.654;9.070;2023-07-13T12:27:39;73.00;;;65.72;;
15198;SDS011;7700;48.654;9.070;2023-07-13T12:30:21;84.20;;;75.55;;
15198;SDS011;7700;48.654;9.070;2023-07-13T12:33:08;80.95;;;67.57;;
15198;SDS011;7700;48.654;9.070;2023-07-13T12:35:44;47.65;;;42.50;;
15198;SDS011;7700;48.654;9.070;2023-07-13T12:38:12;74.38;;;66.35;;
15198;SDS011;7700;48.654;9.070;2023-07-13T12:40:38;88.00;;;79.13;;
15198;SDS011;7700;48.654;9.070;2023-07-13T12:43:05;74.40;;;66.30;;
15198;SDS011;7700;48.654;9.070;2023-07-13T12:45:36;85.18;;;73.97;;
15198;SDS011;7700;48.654;9.070;2023-07-13T12:48:03;63.40;;;57.58;;
15198;SDS011;7700;48.654;9.070;2023-07-13T12:50:40;82.97;;;73.13;;
15198;SDS011;7700;48.654;9.070;2023-07-13T12:53:09;80.70;;;71.93;;
15198;SDS011;7700;48.654;9.070;2023-07-13T12:55:41;75.03;;;67.50;;
15198;SDS011;7700;48.654;9.070;2023-07-13T12:58:10;58.28;;;49.22;;
15198;SDS011;7700;48.654;9.070;2023-07-13T13:00:39;66.00;;;59.28;;
15198;SDS011;7700;48.654;9.070;2023-07-13T13:03:06;113.40;;;101.72;;
15198;SDS011;7700;48.654;9.070;2023-07-13T13:05:33;75.07;;;67.35;;
15198;SDS011;7700;48.654;9.070;2023-07-13T13:07:59;80.72;;;72.32;;
15198;SDS011;7700;48.654;9.070;2023-07-13T13:10:25;90.18;;;80.38;;
15198;SDS011;7700;48.654;9.070;2023-07-13T13:12:52;87.07;;;71.07;;
15198;SDS011;7700;48.654;9.070;2023-07-13T13:15:18;59.50;;;53.08;;
15198;SDS011;7700;48.654;9.070;2023-07-13T13:17:44;95.03;;;85.95;;
15198;SDS011;7700;48.654;9.070;2023-07-13T13:20:16;77.63;;;67.50;;
15198;SDS011;7700;48.654;9.070;2023-07-13T13:22:43;64.03;;;57.83;;
15198;SDS011;7700;48.654;9.070;2023-07-13T13:25:12;71.90;;;64.07;;
15198;SDS011;7700;48.654;9.070;2023-07-13T13:27:41;65.45;;;58.50;;
15198;SDS011;7700;48.654;9.070;2023-07-13T13:30:11;75.32;;;66.30;;
15198;SDS011;7700;48.654;9.070;2023-07-13T13:32:41;70.00;;;63.38;;
15198;SDS011;7700;48.654;9.070;2023-07-13T13:35:17;91.70;;;77.22;;
15198;SDS011;7700;48.654;9.070;2023-07-13T13:37:43;66.43;;;59.70;;
15198;SDS011;7700;48.654;9.070;2023-07-13T13:40:16;70.72;;;64.20;;
15198;SDS011;7700;48.654;9.070;2023-07-13T13:42:42;70.00;;;62.42;;
15198;SDS011;7700;48.654;9.070;2023-07-13T13:45:11;87.57;;;77.15;;
15198;SDS011;7700;48.654;9.070;2023-07-13T13:47:38;78.43;;;66.35;;
15198;SDS011;7700;48.654;9.070;2023-07-13T13:50:12;78.85;;;70.55;;
15198;SDS011;7700;48.654;9.070;2023-07-13T13:52:39;84.53;;;74.18;;
15198;SDS011;7700;48.654;9.070;2023-07-13T13:55:15;81.00;;;72.65;;
15198;SDS011;7700;48.654;9.070;2023-07-13T13:57:43;108.90;;;89.80;;
15198;SDS011;7700;48.654;9.070;2023-07-13T14:00:10;105.88;;;93.45;;
15198;SDS011;7700;48.654;9.070;2023-07-13T14:02:44;83.03;;;74.78;;
15198;SDS011;7700;48.654;9.070;2023-07-13T14:05:16;66.57;;;60.25;;
15198;SDS011;7700;48.654;9.070;2023-07-13T14:07:44;100.00;;;80.25;;
15198;SDS011;7700;48.654;9.070;2023-07-13T14:10:11;109.53;;;76.13;;
15198;SDS011;7700;48.654;9.070;2023-07-13T14:12:38;85.60;;;76.28;;
15198;SDS011;7700;48.654;9.070;2023-07-13T14:15:04;91.32;;;78.57;;
15198;SDS011;7700;48.654;9.070;2023-07-13T14:17:30;115.60;;;104.00;;
15198;SDS011;7700;48.654;9.070;2023-07-13T14:19:57;82.18;;;73.68;;
15198;SDS011;7700;48.654;9.070;2023-07-13T14:22:24;75.10;;;67.13;;
15198;SDS011;7700;48.654;9.070;2023-07-13T14:24:53;80.50;;;72.43;;
15198;SDS011;7700;48.654;9.070;2023-07-13T14:27:20;76.15;;;67.85;;
15198;SDS011;7700;48.654;9.070;2023-07-13T14:29:46;127.43;;;97.05;;
15198;SDS011;7700;48.654;9.070;2023-07-13T14:32:12;91.47;;;80.80;;
15198;SDS011;7700;48.654;9.070;2023-07-13T14:34:38;88.20;;;79.32;;
15198;SDS011;7700;48.654;9.070;2023-07-13T14:37:05;75.15;;;61.88;;
15198;SDS011;7700;48.654;9.070;2023-07-13T14:39:31;85.80;;;77.32;;
15198;SDS011;7700;48.654;9.070;2023-07-13T14:41:57;125.90;;;104.45;;
15198;SDS011;7700;48.654;9.070;2023-07-13T14:44:25;89.43;;;71.97;;
15198;SDS011;7700;48.654;9.070;2023-07-13T14:46:51;84.82;;;76.32;;
15198;SDS011;7700;48.654;9.070;2023-07-13T14:51:43;61.47;;;55.45;;
15198;SDS011;7700;48.654;9.070;2023-07-13T14:54:09;86.38;;;70.50;;
15198;SDS011;7700;48.654;9.070;2023-07-13T14:56:36;59.05;;;52.35;;
15198;SDS011;7700;48.654;9.070;2023-07-13T14:59:02;70.50;;;62.85;;
15198;SDS011;7700;48.654;9.070;2023-07-13T15:01:29;81.55;;;69.63;;
15198;SDS011;7700;48.654;9.070;2023-07-13T15:03:55;123.78;;;92.80;;
15198;SDS011;7700;48.654;9.070;2023-07-13T15:06:22;135.30;;;109.18;;
15198;SDS011;7700;48.654;9.070;2023-07-13T15:08:48;65.22;;;58.30;;
15198;SDS011;7700;48.654;9.070;2023-07-13T15:11:15;70.53;;;63.78;;
15198;SDS011;7700;48.654;9.070;2023-07-13T15:13:41;101.80;;;84.45;;
15198;SDS011;7700;48.654;9.070;2023-07-13T15:16:17;88.70;;;79.72;;
15198;SDS011;7700;48.654;9.070;2023-07-13T15:18:44;130.23;;;110.72;;
15198;SDS011;7700;48.654;9.070;2023-07-13T15:21:11;85.18;;;77.43;;
15198;SDS011;7700;48.654;9.070;2023-07-13T15:23:41;300.55;;;242.05;;
15198;SDS011;7700;48.654;9.070;2023-07-13T15:26:17;89.13;;;80.35;;
15198;SDS011;7700;48.654;9.070;2023-07-13T15:28:43;73.75;;;66.32;;
15198;SDS011;7700;48.654;9.070;2023-07-13T15:31:19;103.00;;;91.80;;